Data for 03/17/2014

Time Sea-Level Adjusted Pressure Absolute Pressure Temperature Relative Humidity Dew Point   
(mb) (inHg) (mb) (inHg) (C) (F) (%) (C) (F)
00:05 1007 29.74 837 24.72 8.9 47.9 27 -9.3 15.2
00:10 1007 29.74 836 24.69 8.7 47.7 26 -9.6 14.7
00:15 1007 29.74 836 24.69 8.6 47.5 27 -9.1 15.6
00:20 1007 29.74 836 24.69 8.4 47 29 -8.8 16.1
00:25 1007 29.74 836 24.69 8.1 46.6 28 -9.5 14.9
00:30 1007 29.74 836 24.69 8.2 46.8 28 -9.4 15.1
00:35 1006 29.71 836 24.69 8.3 47 27 -9.7 14.6
00:40 1006 29.71 835 24.66 8.4 47.2 25 -10.3 13.5
00:45 1006 29.71 835 24.66 8.4 47.1 26 -10.1 13.7
00:50 1006 29.71 835 24.66 8.4 47.1 25 -10.3 13.4
00:55 1006 29.71 835 24.66 8.5 47.3 25 -10.7 12.8
01:00 1006 29.71 835 24.66 8.7 47.7 24 -10.6 12.9
01:05 1006 29.71 835 24.66 8.9 47.9 24 -10.6 12.9
01:10 1005 29.68 835 24.66 8.8 47.9 23 -11 12.2
01:15 1005 29.68 835 24.66 8.9 48 23 -10.9 12.3
01:20 1005 29.68 834 24.63 9.2 48.6 22 -11.5 11.3
01:25 1005 29.68 834 24.63 9.7 49.5 22 -11.3 11.7
01:30 1005 29.68 834 24.63 9.7 49.4 23 -10.4 13.3
01:35 1005 29.68 834 24.63 9 48.2 25 -9.8 14.3
01:40 1005 29.68 834 24.63 8.5 47.4 26 -9.7 14.6
01:45 1005 29.68 834 24.63 8.5 47.2 28 -9.1 15.7
01:50 1004 29.65 834 24.63 8.3 47 28 -9 15.9
01:55 1004 29.65 833 24.6 8.2 46.8 29 -8.9 15.9
02:00 1004 29.65 833 24.6 8 46.5 30 -8.6 16.4
02:05 1004 29.65 833 24.6 8 46.3 30 -8.6 16.5
02:10 1004 29.65 833 24.6 8.2 46.7 28 -9.1 15.6
02:15 1004 29.65 833 24.6 8.6 47.5 27 -9.5 14.8
02:20 1003 29.62 833 24.6 8.8 47.9 29 -8.5 16.8
02:25 1003 29.62 833 24.6 8.5 47.3 29 -8.6 16.5
02:30 1003 29.62 832 24.57 8.4 47 29 -8.8 16.2
02:35 1003 29.62 832 24.57 8.3 47 29 -8.7 16.4
02:40 1003 29.62 832 24.57 8.3 46.9 30 -8.4 16.8
02:45 1003 29.62 832 24.57 8.4 47 28 -9 15.8
02:50 1003 29.62 832 24.57 8.4 47.1 29 -8.6 16.6
02:55 1003 29.62 832 24.57 8.4 47 30 -8.4 16.8
03:00 1003 29.62 832 24.57 8.2 46.7 29 -8.9 15.9
03:05 1002 29.59 832 24.57 8.2 46.7 29 -8.9 16
03:10 1002 29.59 831 24.54 8.4 47.2 28 -9.1 15.7
03:15 1002 29.59 831 24.54 8.5 47.2 29 -8.4 16.9
03:20 1002 29.59 831 24.54 8.2 46.7 30 -8.4 16.9
03:25 1002 29.59 831 24.54 7.9 46.2 31 -8.3 17
03:30 1002 29.59 831 24.54 7.8 46.1 30 -8.7 16.4
03:35 1002 29.59 831 24.54 8.2 46.7 29 -8.9 16
03:40 1002 29.59 831 24.54 8.5 47.3 29 -8.5 16.6
03:45 1001 29.56 831 24.54 8.1 46.6 31 -7.8 17.9
03:50 1001 29.56 831 24.54 7.7 45.8 30 -8.8 16.1
03:55 1001 29.56 830 24.51 7.9 46.3 31 -8.1 17.3
04:00 1001 29.56 830 24.51 7.8 46 32 -7.9 17.7
04:05 1001 29.56 830 24.51 7.4 45.3 33 -7.7 18.2
04:10 1001 29.56 830 24.51 7 44.6 33 -8 17.6
04:15 1001 29.56 830 24.51 7.2 44.9 32 -8.3 17.1
04:20 1001 29.56 830 24.51 7.3 45.2 32 -8.2 17.3
04:25 1001 29.56 830 24.51 7.5 45.4 33 -7.9 17.8
04:30 1000 29.53 830 24.51 7.3 45.2 33 -7.8 17.9
04:35 1000 29.53 830 24.51 7.4 45.3 32 -8.3 17
04:40 1000 29.53 830 24.51 7.5 45.5 32 -8.1 17.4
04:45 1000 29.53 830 24.51 7.7 45.8 30 -8.9 16
04:50 1000 29.53 830 24.51 8.6 47.5 27 -9.5 14.8
04:55 1000 29.53 830 24.51 8.7 47.7 30 -8 17.6
05:00 1000 29.53 829 24.48 8.4 47.2 28 -8.9 15.9
05:05 1000 29.53 829 24.48 8.8 47.8 29 -8.3 17.1
05:10 1000 29.53 829 24.48 8.8 47.8 30 -7.8 18
05:15 1000 29.53 829 24.48 8.7 47.6 31 -7.7 18.2
05:20 1000 29.53 829 24.48 8.5 47.3 32 -7.4 18.7
05:25 1000 29.53 829 24.48 8.4 47.1 33 -7 19.4
05:30 1000 29.53 829 24.48 8.1 46.7 34 -6.9 19.5
05:35 1000 29.53 829 24.48 8 46.4 33 -7.2 19.1
05:40 1000 29.53 829 24.48 8.1 46.5 33 -7.1 19.1
05:45 1000 29.53 829 24.48 7.9 46.2 35 -6.5 20.4
05:50 1000 29.53 829 24.48 7.6 45.8 37 -6.3 20.7
05:55 999 29.5 829 24.48 7.5 45.4 36 -6.6 20.1
06:00 999 29.5 829 24.48 7.5 45.4 36 -6.8 19.7
06:05 999 29.5 829 24.48 7.5 45.4 36 -6.8 19.7
06:10 999 29.5 829 24.48 7.4 45.4 36 -6.7 20
06:15 999 29.5 829 24.48 7.3 45.2 36 -6.8 19.8
06:20 999 29.5 828 24.45 7.3 45.2 35 -7.1 19.3
06:25 999 29.5 828 24.45 7.4 45.4 36 -6.8 19.7
06:30 999 29.5 828 24.45 7.2 45 37 -6.6 20
06:35 999 29.5 828 24.45 7.2 44.9 36 -6.8 19.8
06:40 999 29.5 828 24.45 7.1 44.8 38 -6.1 21
06:45 999 29.5 828 24.45 6.9 44.4 39 -6.1 21
06:50 999 29.5 828 24.45 6.8 44.2 40 -6 21.1
06:55 999 29.5 828 24.45 6.7 44.1 40 -6.1 21.1
07:00 999 29.5 829 24.48 6.8 44.2 39 -6.1 21
07:05 999 29.5 829 24.48 6.9 44.4 39 -6.1 20.9
07:10 1000 29.53 829 24.48 6.8 44.2 41 -5.5 22.2
07:15 1000 29.53 829 24.48 6.3 43.4 42 -5.7 21.7
07:20 1000 29.53 829 24.48 5.9 42.7 44 -5.3 22.4
07:25 1000 29.53 829 24.48 5.7 42.3 46 -5.1 22.7
07:30 1000 29.53 829 24.48 5.6 42.1 48 -4.4 24
07:35 1000 29.53 829 24.48 5.6 42 48 -4.7 23.6
07:40 1000 29.53 830 24.51 5.5 41.8 49 -4.4 24
07:45 1001 29.56 830 24.51 5.1 41.2 58 -2.4 27.8
07:50 1001 29.56 830 24.51 4.5 40.2 62 -2.2 28
07:55 1001 29.56 830 24.51 4.5 40.1 60 -2.5 27.5
08:00 1001 29.56 830 24.51 4.7 40.4 61 -2.2 28.1
08:05 1001 29.56 830 24.51 4.6 40.3 60 -2.4 27.7
08:10 1001 29.56 830 24.51 4.5 40.1 61 -2.3 27.8
08:15 1001 29.56 830 24.51 4.3 39.8 61 -2.6 27.3
08:20 1001 29.56 830 24.51 4.2 39.5 61 -2.8 27
08:25 1001 29.56 830 24.51 4.1 39.4 61 -2.8 27
08:30 1001 29.56 830 24.51 4.1 39.3 61 -2.7 27.1
08:35 1001 29.56 830 24.51 3.9 39.1 64 -2.3 27.9
08:40 1001 29.56 830 24.51 3.3 37.9 72 -1.3 29.6
08:45 1001 29.56 831 24.54 2.6 36.7 75 -1.3 29.6
08:50 1001 29.56 831 24.54 2.4 36.3 77 -1.3 29.7
08:55 1001 29.56 831 24.54 2.3 36.1 79 -1.1 30
09:00 1001 29.56 831 24.54 2.2 36 79 -1.1 30.1
09:05 1001 29.56 831 24.54 2.1 35.8 81 -0.8 30.5
09:10 1001 29.56 831 24.54 2 35.6 83 -0.6 30.9
09:15 1001 29.56 831 24.54 1.7 35 87 -0.3 31.5
09:20 1001 29.56 831 24.54 1.1 33.9 89 -0.5 31.1
09:25 1001 29.56 831 24.54 0.7 33.2 92 -0.5 31
09:30 1002 29.59 831 24.54 0.5 32.9 93 -0.5 31
09:35 1001 29.56 831 24.54 0.6 33 93 -0.5 31.2
09:40 1001 29.56 831 24.54 0.6 33.1 93 -0.4 31.3
09:45 1001 29.56 831 24.54 0.6 33.2 93 -0.4 31.3
09:50 1001 29.56 831 24.54 0.7 33.3 93 -0.3 31.4
09:55 1001 29.56 831 24.54 0.8 33.5 92 -0.3 31.5
10:00 1001 29.56 831 24.54 0.8 33.4 92 -0.4 31.3
10:05 1002 29.59 831 24.54 0.6 33.1 93 -0.4 31.2
10:10 1002 29.59 831 24.54 0.5 32.9 93 -0.4 31.2
10:15 1002 29.59 831 24.54 0.5 33 93 -0.4 31.2
10:20 1002 29.59 831 24.54 0.6 33.2 93 -0.3 31.4
10:25 1002 29.59 831 24.54 0.7 33.2 93 -0.3 31.4
10:30 1002 29.59 831 24.54 0.6 33.1 93 -0.3 31.4
10:35 1002 29.59 831 24.54 0.6 33.1 93 -0.4 31.4
10:40 1002 29.59 831 24.54 0.6 33.1 92 -0.5 31.1
10:45 1002 29.59 831 24.54 1 33.9 91 -0.2 31.6
10:50 1002 29.59 831 24.54 1.3 34.4 89 -0.2 31.6
10:55 1002 29.59 831 24.54 1.4 34.5 90 -0.2 31.7
11:00 1002 29.59 831 24.54 1.5 34.7 89 -0.2 31.7
11:05 1002 29.59 831 24.54 1.5 34.7 88 -0.2 31.6
11:10 1002 29.59 831 24.54 1.2 34.2 90 -0.2 31.6
11:15 1002 29.59 831 24.54 1 33.7 92 -0.2 31.6
11:20 1002 29.59 831 24.54 0.8 33.5 92 -0.3 31.5
11:25 1002 29.59 831 24.54 0.9 33.5 92 -0.3 31.5
11:30 1002 29.59 832 24.57 1.1 33.9 91 -0.2 31.6
11:35 1003 29.62 832 24.57 1.1 34.1 92 -0.1 31.9
11:40 1003 29.62 832 24.57 1.1 34 92 -0.1 31.8
11:45 1003 29.62 832 24.57 1.3 34.3 91 -0 32
11:50 1003 29.62 832 24.57 1.5 34.8 90 0.1 32.2
11:55 1003 29.62 832 24.57 1.7 35 88 -0.1 31.8
12:00 1003 29.62 832 24.57 1.4 34.6 89 -0.1 31.8
12:05 1003 29.62 832 24.57 1.3 34.4 90 -0.1 31.8
12:10 1003 29.62 832 24.57 1.3 34.3 90 -0.1 31.8
12:15 1003 29.62 832 24.57 1.2 34.2 91 -0.2 31.7
12:20 1003 29.62 832 24.57 1.4 34.5 89 -0.2 31.7
12:25 1003 29.62 832 24.57 1.3 34.3 84 -1.1 30
12:30 1003 29.62 832 24.57 1.6 34.8 83 -1.1 30.1
12:35 1003 29.62 832 24.57 1.7 35.1 82 -1 30.2
12:40 1003 29.62 832 24.57 1.6 34.8 83 -1 30.2
12:45 1003 29.62 833 24.6 1.4 34.5 85 -0.9 30.4
12:50 1004 29.65 833 24.6 1.2 34.2 89 -0.5 31.2
12:55 1004 29.65 833 24.6 1.3 34.3 88 -0.6 31
13:00 1004 29.65 833 24.6 1.4 34.6 87 -0.4 31.2
13:05 1004 29.65 833 24.6 1.6 34.9 86 -0.6 31
13:10 1004 29.65 833 24.6 1 33.8 89 -0.6 30.8
13:15 1004 29.65 833 24.6 0.4 32.7 90 -1 30.2
13:20 1004 29.65 834 24.63 0.4 32.7 90 -1.1 30
13:25 1004 29.65 834 24.63 0.6 33 89 -1.1 30.1
13:30 1005 29.68 834 24.63 0.8 33.5 86 -1.3 29.7
13:35 1005 29.68 834 24.63 1.1 33.9 83 -1.5 29.3
13:40 1005 29.68 834 24.63 1.3 34.4 81 -1.6 29.1
13:45 1005 29.68 834 24.63 1.6 34.9 79 -1.7 29
13:50 1005 29.68 834 24.63 1.7 35 77 -1.9 28.6
13:55 1005 29.68 834 24.63 1.8 35.2 76 -2 28.4
14:00 1005 29.68 834 24.63 2 35.5 72 -2.6 27.4
14:05 1005 29.68 835 24.66 2 35.6 72 -2.5 27.5
14:10 1005 29.68 835 24.66 2.1 35.7 69 -3 26.5
14:15 1006 29.71 835 24.66 1.9 35.5 70 -3 26.6
14:20 1006 29.71 835 24.66 1.9 35.4 72 -2.6 27.3
14:25 1006 29.71 835 24.66 1.8 35.3 72 -2.7 27.2
14:30 1006 29.71 835 24.66 1.4 34.6 80 -1.6 29.2
14:35 1006 29.71 835 24.66 0.9 33.6 85 -1.4 29.5
14:40 1006 29.71 835 24.66 0.6 33.1 86 -1.4 29.5
14:45 1006 29.71 836 24.69 0.5 33 88 -1.2 29.8
14:50 1006 29.71 836 24.69 0.4 32.8 88 -1.3 29.7
14:55 1007 29.74 836 24.69 0.4 32.7 88 -1.3 29.6
15:00 1007 29.74 836 24.69 0.5 32.9 87 -1.4 29.5
15:05 1007 29.74 836 24.69 0.6 33.1 84 -1.7 28.9
15:10 1007 29.74 836 24.69 1 33.8 75 -2.9 26.7
15:15 1007 29.74 836 24.69 1.3 34.3 71 -3.4 25.9
15:20 1007 29.74 836 24.69 1.3 34.3 71 -3.4 25.9
15:25 1007 29.74 836 24.69 1.4 34.5 73 -3 26.6
15:30 1007 29.74 837 24.72 1.5 34.7 71 -3.3 26.1
15:35 1007 29.74 837 24.72 1.5 34.7 64 -4.6 23.7
15:40 1007 29.74 837 24.72 1.5 34.7 67 -4 24.7
15:45 1008 29.77 837 24.72 1.5 34.7 67 -4.1 24.7
15:50 1008 29.77 837 24.72 1.6 34.9 66 -4.1 24.7
15:55 1008 29.77 837 24.72 1.6 34.9 68 -3.6 25.6
16:00 1008 29.77 837 24.72 1.5 34.7 67 -3.9 25
16:05 1008 29.77 837 24.72 1.5 34.6 70 -3.4 25.8
16:10 1008 29.77 837 24.72 1.2 34.2 73 -3.1 26.5
16:15 1008 29.77 837 24.72 0.7 33.2 83 -1.9 28.6
16:20 1008 29.77 837 24.72 0.2 32.4 87 -1.7 28.9
16:25 1008 29.77 838 24.75 0 32.1 88 -1.7 29
16:30 1008 29.77 838 24.75 -0.1 31.8 87 -2 28.4
16:35 1008 29.77 838 24.75 -0 32 85 -2.2 28
16:40 1009 29.8 838 24.75 0.1 32.2 84 -2.2 28
16:45 1009 29.8 838 24.75 0.2 32.4 83 -2.3 27.9
16:50 1009 29.8 838 24.75 0.4 32.7 83 -2.2 28.1
16:55 1009 29.8 838 24.75 0.5 32.8 83 -2.1 28.1
17:00 1009 29.8 838 24.75 0.4 32.8 83 -2.1 28.2
17:05 1009 29.8 838 24.75 0.3 32.6 85 -2 28.4
17:10 1009 29.8 838 24.75 0.1 32.2 87 -1.8 28.8
17:15 1009 29.8 839 24.78 -0.1 31.7 89 -1.8 28.8
17:20 1010 29.83 839 24.78 -0.3 31.5 90 -1.8 28.8
17:25 1010 29.83 839 24.78 -0.4 31.3 91 -1.7 28.9
17:30 1010 29.83 839 24.78 -0.4 31.2 91 -1.8 28.8
17:35 1010 29.83 839 24.78 -0.5 31.1 90 -2 28.4
17:40 1010 29.83 839 24.78 -0.6 30.9 90 -2 28.4
17:45 1010 29.83 839 24.78 -0.7 30.7 92 -1.9 28.6
17:50 1010 29.83 839 24.78 -0.7 30.7 93 -1.8 28.7
17:55 1010 29.83 839 24.78 -0.9 30.5 93 -1.8 28.7
18:00 1010 29.83 840 24.81 -0.9 30.3 94 -1.8 28.7
18:05 1010 29.83 840 24.81 -1 30.3 94 -1.8 28.8
18:10 1011 29.85 840 24.81 -1 30.3 94 -1.7 28.9
18:15 1011 29.85 840 24.81 -1 30.2 94 -1.8 28.8
18:20 1011 29.85 840 24.81 -1.1 30 94 -1.9 28.6
18:25 1011 29.85 840 24.81 -1.1 29.9 95 -1.9 28.6
18:30 1011 29.85 840 24.81 -1.2 29.8 95 -2 28.5
18:35 1011 29.85 840 24.81 -1.2 29.8 95 -2 28.4
18:40 1011 29.85 840 24.81 -1.3 29.7 95 -2 28.4
18:45 1011 29.85 840 24.81 -1.3 29.7 95 -2 28.5
18:50 1011 29.85 840 24.81 -1.3 29.6 95 -2 28.3
18:55 1011 29.85 840 24.81 -1.3 29.6 95 -2.1 28.3
19:00 1011 29.85 840 24.81 -1.4 29.5 95 -2.1 28.2
19:05 1011 29.85 841 24.83 -1.4 29.5 95 -2.1 28.1
19:10 1011 29.85 841 24.83 -1.4 29.4 95 -2.2 28.1
19:15 1012 29.88 841 24.83 -1.5 29.3 94 -2.3 27.9
19:20 1012 29.88 841 24.83 -1.6 29.1 95 -2.3 27.8
19:25 1012 29.88 841 24.83 -1.6 29.1 95 -2.3 27.9
19:30 1012 29.88 841 24.83 -1.6 29.1 95 -2.4 27.8
19:35 1012 29.88 841 24.83 -1.7 29 95 -2.4 27.7
19:40 1012 29.88 841 24.83 -1.7 29 95 -2.4 27.7
19:45 1012 29.88 841 24.83 -1.7 28.9 95 -2.4 27.7
19:50 1012 29.88 841 24.83 -1.8 28.8 95 -2.4 27.6
19:55 1012 29.88 841 24.83 -1.8 28.8 95 -2.4 27.7
20:00 1012 29.88 841 24.83 -1.8 28.8 95 -2.5 27.6
20:05 1012 29.88 842 24.86 -1.8 28.8 95 -2.5 27.6
20:10 1012 29.88 842 24.86 -1.8 28.8 95 -2.5 27.5
20:15 1013 29.91 842 24.86 -1.8 28.7 95 -2.5 27.5
20:20 1013 29.91 842 24.86 -1.9 28.5 95 -2.6 27.3
20:25 1013 29.91 842 24.86 -2.1 28.3 95 -2.7 27.1
20:30 1013 29.91 842 24.86 -2.2 28.1 95 -2.9 26.8
20:35 1013 29.91 842 24.86 -2.2 28 95 -2.9 26.7
20:40 1013 29.91 842 24.86 -2.3 27.9 95 -3 26.7
20:45 1013 29.91 842 24.86 -2.3 27.9 95 -3 26.7
20:50 1013 29.91 842 24.86 -2.3 27.9 95 -2.9 26.7
20:55 1013 29.91 842 24.86 -2.3 27.9 95 -2.9 26.7
21:00 1013 29.91 842 24.86 -2.3 27.9 95 -2.9 26.7
21:05 1013 29.91 843 24.89 -2.3 27.8 95 -3 26.6
21:10 1013 29.91 843 24.89 -2.4 27.8 95 -3 26.6
21:15 1013 29.91 843 24.89 -2.4 27.7 95 -3 26.6
21:20 1013 29.91 843 24.89 -2.4 27.7 95 -3.1 26.4
21:25 1014 29.94 843 24.89 -2.4 27.7 95 -3.1 26.5
21:30 1014 29.94 843 24.89 -2.5 27.5 95 -3.1 26.4
21:35 1014 29.94 843 24.89 -2.5 27.5 95 -3.2 26.3
21:40 1014 29.94 843 24.89 -2.5 27.4 95 -3.2 26.3
21:45 1014 29.94 843 24.89 -2.5 27.5 96 -3.1 26.4
21:50 1014 29.94 843 24.89 -2.5 27.6 96 -3.1 26.5
21:55 1014 29.94 843 24.89 -2.4 27.6 96 -3.1 26.5
22:00 1014 29.94 843 24.89 -2.4 27.6 96 -3.1 26.5
22:05 1014 29.94 843 24.89 -2.4 27.6 96 -3.1 26.5
22:10 1014 29.94 843 24.89 -2.4 27.6 95 -3.1 26.5
22:15 1014 29.94 843 24.89 -2.4 27.6 95 -3.1 26.5
22:20 1014 29.94 843 24.89 -2.4 27.6 96 -3 26.5
22:25 1014 29.94 843 24.89 -2.4 27.6 96 -3 26.5
22:30 1014 29.94 843 24.89 -2.4 27.7 96 -3 26.6
22:35 1014 29.94 843 24.89 -2.4 27.7 96 -3 26.7
22:40 1014 29.94 843 24.89 -2.3 27.8 96 -2.9 26.8
22:45 1014 29.94 843 24.89 -2.3 27.9 96 -2.9 26.8
22:50 1014 29.94 843 24.89 -2.3 27.9 96 -2.9 26.8
22:55 1014 29.94 844 24.92 -2.3 27.9 96 -2.9 26.8
23:00 1014 29.94 844 24.92 -2.3 27.9 96 -2.9 26.8
23:05 1014 29.94 844 24.92 -2.3 27.8 96 -2.9 26.7
23:10 1015 29.97 844 24.92 -2.4 27.8 96 -2.9 26.7
23:15 1015 29.97 844 24.92 -2.4 27.7 96 -3 26.7
23:20 1015 29.97 844 24.92 -2.4 27.7 96 -3 26.6
23:25 1015 29.97 844 24.92 -2.4 27.7 96 -3 26.6
23:30 1015 29.97 844 24.92 -2.4 27.7 96 -3 26.6
23:35 1015 29.97 844 24.92 -2.5 27.6 96 -3 26.5
23:40 1015 29.97 844 24.92 -2.4 27.6 96 -3 26.6
23:45 1015 29.97 844 24.92 -2.4 27.6 96 -3 26.5
23:50 1015 29.97 844 24.92 -2.5 27.5 96 -3.1 26.4
23:55 1015 29.97 844 24.92 -2.6 27.4 96 -3.2 26.3
24:00 1015 29.97 844 24.92 -2.6 27.3 96 -3.2 26.2